sensor_id;sensor_type;location;lat;lon;timestamp;P1;durP1;ratioP1;P2;durP2;ratioP2
52942;SDS011;38809;53.300;6.614;2022-10-31T00:01:11;18.25;;;9.73;;
52942;SDS011;38809;53.300;6.614;2022-10-31T00:03:39;15.48;;;8.85;;
52942;SDS011;38809;53.300;6.614;2022-10-31T00:06:05;17.20;;;8.80;;
52942;SDS011;38809;53.300;6.614;2022-10-31T00:08:31;20.55;;;9.65;;
52942;SDS011;38809;53.300;6.614;2022-10-31T00:10:57;16.98;;;8.65;;
52942;SDS011;38809;53.300;6.614;2022-10-31T00:13:22;18.08;;;9.20;;
52942;SDS011;38809;53.300;6.614;2022-10-31T00:15:48;15.60;;;8.82;;
52942;SDS011;38809;53.300;6.614;2022-10-31T00:18:14;16.83;;;8.88;;
52942;SDS011;38809;53.300;6.614;2022-10-31T00:20:39;18.15;;;8.55;;
52942;SDS011;38809;53.300;6.614;2022-10-31T00:23:05;16.85;;;8.15;;
52942;SDS011;38809;53.300;6.614;2022-10-31T00:27:59;12.55;;;7.78;;
52942;SDS011;38809;53.300;6.614;2022-10-31T00:30:24;17.03;;;8.53;;
52942;SDS011;38809;53.300;6.614;2022-10-31T00:32:50;15.60;;;8.90;;
52942;SDS011;38809;53.300;6.614;2022-10-31T00:35:15;15.55;;;9.68;;
52942;SDS011;38809;53.300;6.614;2022-10-31T00:37:41;15.95;;;9.25;;
52942;SDS011;38809;53.300;6.614;2022-10-31T00:40:07;13.80;;;8.50;;
52942;SDS011;38809;53.300;6.614;2022-10-31T00:42:33;15.88;;;8.45;;
52942;SDS011;38809;53.300;6.614;2022-10-31T00:44:59;12.38;;;7.57;;
52942;SDS011;38809;53.300;6.614;2022-10-31T00:47:24;12.88;;;8.32;;
52942;SDS011;38809;53.300;6.614;2022-10-31T00:49:50;15.23;;;8.87;;
52942;SDS011;38809;53.300;6.614;2022-10-31T00:52:16;14.60;;;8.73;;
52942;SDS011;38809;53.300;6.614;2022-10-31T00:54:41;13.82;;;7.75;;
52942;SDS011;38809;53.300;6.614;2022-10-31T00:57:07;17.25;;;9.07;;
52942;SDS011;38809;53.300;6.614;2022-10-31T00:59:33;13.00;;;8.63;;
52942;SDS011;38809;53.300;6.614;2022-10-31T01:01:58;15.40;;;8.82;;
52942;SDS011;38809;53.300;6.614;2022-10-31T01:04:24;14.15;;;7.55;;
52942;SDS011;38809;53.300;6.614;2022-10-31T01:06:49;15.63;;;8.23;;
52942;SDS011;38809;53.300;6.614;2022-10-31T01:09:15;16.57;;;8.03;;
52942;SDS011;38809;53.300;6.614;2022-10-31T01:11:41;21.20;;;9.80;;
52942;SDS011;38809;53.300;6.614;2022-10-31T01:14:08;19.20;;;9.23;;
52942;SDS011;38809;53.300;6.614;2022-10-31T01:16:34;14.05;;;8.80;;
52942;SDS011;38809;53.300;6.614;2022-10-31T01:18:59;14.82;;;9.05;;
52942;SDS011;38809;53.300;6.614;2022-10-31T01:21:26;17.15;;;9.32;;
52942;SDS011;38809;53.300;6.614;2022-10-31T01:23:53;13.68;;;9.23;;
52942;SDS011;38809;53.300;6.614;2022-10-31T01:26:21;19.95;;;11.00;;
52942;SDS011;38809;53.300;6.614;2022-10-31T01:28:49;18.88;;;10.82;;
52942;SDS011;38809;53.300;6.614;2022-10-31T01:31:17;25.38;;;11.10;;
52942;SDS011;38809;53.300;6.614;2022-10-31T01:33:45;15.20;;;10.38;;
52942;SDS011;38809;53.300;6.614;2022-10-31T01:36:12;18.40;;;10.00;;
52942;SDS011;38809;53.300;6.614;2022-10-31T01:38:43;19.15;;;10.23;;
52942;SDS011;38809;53.300;6.614;2022-10-31T01:41:11;16.02;;;10.05;;
52942;SDS011;38809;53.300;6.614;2022-10-31T01:48:50;18.85;;;10.05;;
52942;SDS011;38809;53.300;6.614;2022-10-31T01:51:18;13.65;;;9.30;;
52942;SDS011;38809;53.300;6.614;2022-10-31T01:53:48;14.23;;;8.88;;
52942;SDS011;38809;53.300;6.614;2022-10-31T01:56:15;17.92;;;10.40;;
52942;SDS011;38809;53.300;6.614;2022-10-31T01:58:42;18.77;;;9.85;;
52942;SDS011;38809;53.300;6.614;2022-10-31T02:01:10;15.55;;;9.10;;
52942;SDS011;38809;53.300;6.614;2022-10-31T02:03:37;17.10;;;9.05;;
52942;SDS011;38809;53.300;6.614;2022-10-31T02:06:03;16.05;;;9.35;;
52942;SDS011;38809;53.300;6.614;2022-10-31T02:08:35;15.82;;;9.50;;
52942;SDS011;38809;53.300;6.614;2022-10-31T02:11:04;15.55;;;9.35;;
52942;SDS011;38809;53.300;6.614;2022-10-31T02:13:32;17.55;;;9.57;;
52942;SDS011;38809;53.300;6.614;2022-10-31T02:15:59;15.52;;;8.90;;
52942;SDS011;38809;53.300;6.614;2022-10-31T02:18:26;12.40;;;7.97;;
52942;SDS011;38809;53.300;6.614;2022-10-31T02:31:22;13.63;;;8.88;;
52942;SDS011;38809;53.300;6.614;2022-10-31T02:44:36;12.88;;;8.15;;
52942;SDS011;38809;53.300;6.614;2022-10-31T02:47:17;13.73;;;8.95;;
52942;SDS011;38809;53.300;6.614;2022-10-31T02:52:27;12.32;;;8.38;;
52942;SDS011;38809;53.300;6.614;2022-10-31T02:54:53;15.02;;;9.07;;
52942;SDS011;38809;53.300;6.614;2022-10-31T02:57:21;13.50;;;8.50;;
52942;SDS011;38809;53.300;6.614;2022-10-31T02:59:54;12.65;;;8.80;;
52942;SDS011;38809;53.300;6.614;2022-10-31T03:08:18;17.08;;;9.00;;
52942;SDS011;38809;53.300;6.614;2022-10-31T03:13:28;14.57;;;9.60;;
52942;SDS011;38809;53.300;6.614;2022-10-31T03:16:15;13.90;;;9.10;;
52942;SDS011;38809;53.300;6.614;2022-10-31T03:18:57;15.52;;;9.75;;
52942;SDS011;38809;53.300;6.614;2022-10-31T03:21:30;13.80;;;8.65;;
52942;SDS011;38809;53.300;6.614;2022-10-31T03:24:01;14.90;;;9.55;;
52942;SDS011;38809;53.300;6.614;2022-10-31T03:26:29;16.50;;;9.40;;
52942;SDS011;38809;53.300;6.614;2022-10-31T03:28:57;18.63;;;9.55;;
52942;SDS011;38809;53.300;6.614;2022-10-31T03:31:31;15.77;;;9.75;;
52942;SDS011;38809;53.300;6.614;2022-10-31T03:34:00;14.05;;;8.80;;
52942;SDS011;38809;53.300;6.614;2022-10-31T03:36:28;15.40;;;9.05;;
52942;SDS011;38809;53.300;6.614;2022-10-31T03:38:58;16.13;;;9.80;;
52942;SDS011;38809;53.300;6.614;2022-10-31T03:41:27;12.77;;;8.55;;
52942;SDS011;38809;53.300;6.614;2022-10-31T03:43:57;13.77;;;7.90;;
52942;SDS011;38809;53.300;6.614;2022-10-31T03:46:28;10.10;;;6.82;;
52942;SDS011;38809;53.300;6.614;2022-10-31T03:48:54;12.32;;;7.47;;
52942;SDS011;38809;53.300;6.614;2022-10-31T03:56:41;12.50;;;8.27;;
52942;SDS011;38809;53.300;6.614;2022-10-31T03:59:26;15.30;;;8.90;;
52942;SDS011;38809;53.300;6.614;2022-10-31T04:02:10;13.27;;;8.82;;
52942;SDS011;38809;53.300;6.614;2022-10-31T04:04:39;11.80;;;7.93;;
52942;SDS011;38809;53.300;6.614;2022-10-31T04:07:06;13.35;;;8.07;;
52942;SDS011;38809;53.300;6.614;2022-10-31T04:09:35;13.57;;;8.40;;
52942;SDS011;38809;53.300;6.614;2022-10-31T04:12:03;14.40;;;8.80;;
52942;SDS011;38809;53.300;6.614;2022-10-31T04:14:33;14.88;;;8.88;;
52942;SDS011;38809;53.300;6.614;2022-10-31T04:17:03;13.65;;;8.98;;
52942;SDS011;38809;53.300;6.614;2022-10-31T04:19:32;16.85;;;9.52;;
52942;SDS011;38809;53.300;6.614;2022-10-31T04:24:24;15.65;;;8.55;;
52942;SDS011;38809;53.300;6.614;2022-10-31T04:26:50;16.25;;;8.93;;
52942;SDS011;38809;53.300;6.614;2022-10-31T04:29:16;13.67;;;9.20;;
52942;SDS011;38809;53.300;6.614;2022-10-31T04:31:41;14.52;;;8.73;;
52942;SDS011;38809;53.300;6.614;2022-10-31T04:34:07;14.52;;;9.73;;
52942;SDS011;38809;53.300;6.614;2022-10-31T04:36:33;16.13;;;7.90;;
52942;SDS011;38809;53.300;6.614;2022-10-31T04:38:59;15.87;;;9.07;;
52942;SDS011;38809;53.300;6.614;2022-10-31T04:41:24;11.80;;;7.77;;
52942;SDS011;38809;53.300;6.614;2022-10-31T04:43:50;14.10;;;7.75;;
52942;SDS011;38809;53.300;6.614;2022-10-31T04:46:16;16.27;;;7.65;;
52942;SDS011;38809;53.300;6.614;2022-10-31T04:48:41;12.53;;;8.00;;
52942;SDS011;38809;53.300;6.614;2022-10-31T04:51:07;12.23;;;7.22;;
52942;SDS011;38809;53.300;6.614;2022-10-31T04:53:33;12.30;;;7.13;;
52942;SDS011;38809;53.300;6.614;2022-10-31T04:55:58;15.53;;;7.83;;
52942;SDS011;38809;53.300;6.614;2022-10-31T04:58:27;14.05;;;7.80;;
52942;SDS011;38809;53.300;6.614;2022-10-31T05:00:54;13.02;;;7.68;;
52942;SDS011;38809;53.300;6.614;2022-10-31T05:03:20;12.05;;;7.28;;
52942;SDS011;38809;53.300;6.614;2022-10-31T05:05:46;13.38;;;8.00;;
52942;SDS011;38809;53.300;6.614;2022-10-31T05:08:12;10.93;;;7.28;;
52942;SDS011;38809;53.300;6.614;2022-10-31T05:10:38;15.00;;;8.20;;
52942;SDS011;38809;53.300;6.614;2022-10-31T05:13:04;12.57;;;7.47;;
52942;SDS011;38809;53.300;6.614;2022-10-31T05:15:30;11.45;;;7.57;;
52942;SDS011;38809;53.300;6.614;2022-10-31T05:17:56;12.32;;;7.50;;
52942;SDS011;38809;53.300;6.614;2022-10-31T05:20:23;13.77;;;8.23;;
52942;SDS011;38809;53.300;6.614;2022-10-31T05:22:53;13.10;;;7.95;;
52942;SDS011;38809;53.300;6.614;2022-10-31T05:25:21;12.55;;;7.75;;
52942;SDS011;38809;53.300;6.614;2022-10-31T05:27:49;12.77;;;7.80;;
52942;SDS011;38809;53.300;6.614;2022-10-31T05:30:17;13.75;;;8.20;;
52942;SDS011;38809;53.300;6.614;2022-10-31T05:32:46;12.82;;;8.13;;
52942;SDS011;38809;53.300;6.614;2022-10-31T05:35:14;12.60;;;7.80;;
52942;SDS011;38809;53.300;6.614;2022-10-31T05:37:42;13.20;;;7.50;;
52942;SDS011;38809;53.300;6.614;2022-10-31T05:40:08;13.60;;;8.07;;
52942;SDS011;38809;53.300;6.614;2022-10-31T05:42:37;11.43;;;7.85;;
52942;SDS011;38809;53.300;6.614;2022-10-31T05:45:05;13.57;;;8.27;;
52942;SDS011;38809;53.300;6.614;2022-10-31T05:47:32;13.07;;;8.70;;
52942;SDS011;38809;53.300;6.614;2022-10-31T05:49:57;12.48;;;8.07;;
52942;SDS011;38809;53.300;6.614;2022-10-31T05:52:23;14.63;;;7.60;;
52942;SDS011;38809;53.300;6.614;2022-10-31T05:54:48;13.07;;;7.57;;
52942;SDS011;38809;53.300;6.614;2022-10-31T05:57:14;13.00;;;7.13;;
52942;SDS011;38809;53.300;6.614;2022-10-31T05:59:40;11.35;;;7.63;;
52942;SDS011;38809;53.300;6.614;2022-10-31T06:02:05;9.90;;;6.83;;
52942;SDS011;38809;53.300;6.614;2022-10-31T06:04:31;8.70;;;6.13;;
52942;SDS011;38809;53.300;6.614;2022-10-31T06:06:57;11.57;;;7.13;;
52942;SDS011;38809;53.300;6.614;2022-10-31T06:09:23;11.20;;;7.55;;
52942;SDS011;38809;53.300;6.614;2022-10-31T06:11:48;11.37;;;7.23;;
52942;SDS011;38809;53.300;6.614;2022-10-31T06:14:14;10.17;;;6.97;;
52942;SDS011;38809;53.300;6.614;2022-10-31T06:16:40;9.85;;;6.82;;
52942;SDS011;38809;53.300;6.614;2022-10-31T06:19:05;11.80;;;7.13;;
52942;SDS011;38809;53.300;6.614;2022-10-31T06:21:31;10.80;;;6.93;;
52942;SDS011;38809;53.300;6.614;2022-10-31T06:23:57;14.40;;;7.60;;
52942;SDS011;38809;53.300;6.614;2022-10-31T06:26:22;10.05;;;6.55;;
52942;SDS011;38809;53.300;6.614;2022-10-31T06:28:48;12.35;;;7.28;;
52942;SDS011;38809;53.300;6.614;2022-10-31T06:31:14;9.50;;;6.17;;
52942;SDS011;38809;53.300;6.614;2022-10-31T06:33:42;11.50;;;6.67;;
52942;SDS011;38809;53.300;6.614;2022-10-31T06:36:08;10.93;;;6.97;;
52942;SDS011;38809;53.300;6.614;2022-10-31T06:41:06;12.02;;;6.40;;
52942;SDS011;38809;53.300;6.614;2022-10-31T06:43:32;11.27;;;6.40;;
52942;SDS011;38809;53.300;6.614;2022-10-31T06:46:01;10.88;;;6.88;;
52942;SDS011;38809;53.300;6.614;2022-10-31T06:48:28;11.88;;;7.03;;
52942;SDS011;38809;53.300;6.614;2022-10-31T06:50:57;10.18;;;6.38;;
52942;SDS011;38809;53.300;6.614;2022-10-31T06:53:26;9.65;;;6.55;;
52942;SDS011;38809;53.300;6.614;2022-10-31T06:55:54;12.07;;;5.70;;
52942;SDS011;38809;53.300;6.614;2022-10-31T07:00:47;8.02;;;3.70;;
52942;SDS011;38809;53.300;6.614;2022-10-31T07:03:13;4.35;;;2.90;;
52942;SDS011;38809;53.300;6.614;2022-10-31T07:05:41;5.75;;;2.95;;
52942;SDS011;38809;53.300;6.614;2022-10-31T07:08:09;5.88;;;2.90;;
52942;SDS011;38809;53.300;6.614;2022-10-31T07:10:37;5.07;;;2.88;;
52942;SDS011;38809;53.300;6.614;2022-10-31T07:13:05;17.30;;;4.40;;
52942;SDS011;38809;53.300;6.614;2022-10-31T07:15:34;19.77;;;4.00;;
52942;SDS011;38809;53.300;6.614;2022-10-31T07:18:05;6.32;;;4.15;;
52942;SDS011;38809;53.300;6.614;2022-10-31T07:20:33;8.52;;;5.05;;
52942;SDS011;38809;53.300;6.614;2022-10-31T07:22:59;7.25;;;4.65;;
52942;SDS011;38809;53.300;6.614;2022-10-31T07:25:25;7.45;;;5.03;;
52942;SDS011;38809;53.300;6.614;2022-10-31T07:27:51;7.95;;;5.35;;
52942;SDS011;38809;53.300;6.614;2022-10-31T07:30:17;9.32;;;5.85;;
52942;SDS011;38809;53.300;6.614;2022-10-31T07:32:50;10.02;;;7.18;;
52942;SDS011;38809;53.300;6.614;2022-10-31T07:35:16;8.77;;;6.22;;
52942;SDS011;38809;53.300;6.614;2022-10-31T07:37:48;9.93;;;7.13;;
52942;SDS011;38809;53.300;6.614;2022-10-31T07:42:44;9.63;;;6.35;;
52942;SDS011;38809;53.300;6.614;2022-10-31T07:45:13;9.90;;;7.43;;
52942;SDS011;38809;53.300;6.614;2022-10-31T07:47:43;9.82;;;6.57;;
52942;SDS011;38809;53.300;6.614;2022-10-31T07:50:11;11.05;;;8.02;;
52942;SDS011;38809;53.300;6.614;2022-10-31T07:52:41;10.63;;;7.60;;
52942;SDS011;38809;53.300;6.614;2022-10-31T07:55:07;12.13;;;8.15;;
52942;SDS011;38809;53.300;6.614;2022-10-31T07:57:33;12.98;;;8.88;;
52942;SDS011;38809;53.300;6.614;2022-10-31T07:59:59;12.10;;;8.65;;
52942;SDS011;38809;53.300;6.614;2022-10-31T08:02:24;12.13;;;8.27;;
52942;SDS011;38809;53.300;6.614;2022-10-31T08:04:51;14.18;;;10.00;;
52942;SDS011;38809;53.300;6.614;2022-10-31T08:07:17;16.40;;;9.88;;
52942;SDS011;38809;53.300;6.614;2022-10-31T08:09:43;15.80;;;9.43;;
52942;SDS011;38809;53.300;6.614;2022-10-31T08:12:08;14.43;;;10.23;;
52942;SDS011;38809;53.300;6.614;2022-10-31T08:14:34;12.90;;;9.65;;
52942;SDS011;38809;53.300;6.614;2022-10-31T08:17:00;12.47;;;8.93;;
52942;SDS011;38809;53.300;6.614;2022-10-31T08:19:25;14.07;;;9.32;;
52942;SDS011;38809;53.300;6.614;2022-10-31T08:21:51;14.23;;;10.13;;
52942;SDS011;38809;53.300;6.614;2022-10-31T08:24:19;14.35;;;9.73;;
52942;SDS011;38809;53.300;6.614;2022-10-31T08:26:46;14.63;;;10.10;;
52942;SDS011;38809;53.300;6.614;2022-10-31T08:29:11;13.30;;;10.02;;
52942;SDS011;38809;53.300;6.614;2022-10-31T08:31:38;17.30;;;9.45;;
52942;SDS011;38809;53.300;6.614;2022-10-31T08:34:03;12.27;;;8.95;;
52942;SDS011;38809;53.300;6.614;2022-10-31T08:36:29;13.68;;;9.20;;
52942;SDS011;38809;53.300;6.614;2022-10-31T08:38:55;13.90;;;9.02;;
52942;SDS011;38809;53.300;6.614;2022-10-31T08:41:21;12.23;;;8.73;;
52942;SDS011;38809;53.300;6.614;2022-10-31T08:43:46;17.40;;;9.40;;
52942;SDS011;38809;53.300;6.614;2022-10-31T08:46:12;16.83;;;9.23;;
52942;SDS011;38809;53.300;6.614;2022-10-31T08:48:38;13.07;;;9.10;;
52942;SDS011;38809;53.300;6.614;2022-10-31T08:51:04;12.00;;;8.45;;
52942;SDS011;38809;53.300;6.614;2022-10-31T08:53:30;16.55;;;9.45;;
52942;SDS011;38809;53.300;6.614;2022-10-31T08:55:56;14.25;;;9.18;;
52942;SDS011;38809;53.300;6.614;2022-10-31T08:58:22;13.60;;;8.85;;
52942;SDS011;38809;53.300;6.614;2022-10-31T09:00:49;13.38;;;7.80;;
52942;SDS011;38809;53.300;6.614;2022-10-31T09:03:20;12.48;;;8.07;;
52942;SDS011;38809;53.300;6.614;2022-10-31T09:05:48;10.60;;;7.70;;
52942;SDS011;38809;53.300;6.614;2022-10-31T09:08:14;11.80;;;7.50;;
52942;SDS011;38809;53.300;6.614;2022-10-31T09:13:09;12.30;;;8.20;;
52942;SDS011;38809;53.300;6.614;2022-10-31T09:15:42;12.77;;;8.65;;
52942;SDS011;38809;53.300;6.614;2022-10-31T09:18:10;14.50;;;9.10;;
52942;SDS011;38809;53.300;6.614;2022-10-31T09:20:38;14.18;;;8.82;;
52942;SDS011;38809;53.300;6.614;2022-10-31T09:23:05;13.90;;;8.82;;
52942;SDS011;38809;53.300;6.614;2022-10-31T09:25:33;12.43;;;8.93;;
52942;SDS011;38809;53.300;6.614;2022-10-31T09:28:01;13.57;;;8.07;;
52942;SDS011;38809;53.300;6.614;2022-10-31T09:30:28;11.80;;;7.88;;
52942;SDS011;38809;53.300;6.614;2022-10-31T09:32:55;11.73;;;7.55;;
52942;SDS011;38809;53.300;6.614;2022-10-31T09:35:22;12.77;;;8.13;;
52942;SDS011;38809;53.300;6.614;2022-10-31T09:40:25;10.55;;;6.97;;
52942;SDS011;38809;53.300;6.614;2022-10-31T09:45:31;10.98;;;7.47;;
52942;SDS011;38809;53.300;6.614;2022-10-31T09:48:09;13.13;;;8.27;;
52942;SDS011;38809;53.300;6.614;2022-10-31T09:51:04;11.63;;;7.47;;
52942;SDS011;38809;53.300;6.614;2022-10-31T09:56:16;14.18;;;7.78;;
52942;SDS011;38809;53.300;6.614;2022-10-31T09:58:45;12.65;;;8.10;;
52942;SDS011;38809;53.300;6.614;2022-10-31T10:01:19;14.15;;;7.85;;
52942;SDS011;38809;53.300;6.614;2022-10-31T10:04:00;12.55;;;7.22;;
52942;SDS011;38809;53.300;6.614;2022-10-31T10:06:40;13.07;;;8.60;;
52942;SDS011;38809;53.300;6.614;2022-10-31T10:09:09;14.57;;;9.40;;
52942;SDS011;38809;53.300;6.614;2022-10-31T10:30:18;14.77;;;8.77;;
52942;SDS011;38809;53.300;6.614;2022-10-31T10:35:29;13.70;;;8.30;;
52942;SDS011;38809;53.300;6.614;2022-10-31T10:38:23;11.43;;;7.50;;
52942;SDS011;38809;53.300;6.614;2022-10-31T10:40:52;11.45;;;7.22;;
52942;SDS011;38809;53.300;6.614;2022-10-31T10:43:34;10.13;;;7.03;;
52942;SDS011;38809;53.300;6.614;2022-10-31T10:48:56;9.45;;;6.05;;
52942;SDS011;38809;53.300;6.614;2022-10-31T10:59:27;12.70;;;6.60;;
52942;SDS011;38809;53.300;6.614;2022-10-31T11:01:55;10.15;;;6.63;;
52942;SDS011;38809;53.300;6.614;2022-10-31T11:04:31;8.68;;;5.97;;
52942;SDS011;38809;53.300;6.614;2022-10-31T11:07:02;11.40;;;6.40;;
52942;SDS011;38809;53.300;6.614;2022-10-31T11:09:28;9.13;;;5.80;;
52942;SDS011;38809;53.300;6.614;2022-10-31T11:11:54;11.25;;;5.90;;
52942;SDS011;38809;53.300;6.614;2022-10-31T11:14:21;10.85;;;6.35;;
52942;SDS011;38809;53.300;6.614;2022-10-31T11:16:53;10.10;;;5.95;;
52942;SDS011;38809;53.300;6.614;2022-10-31T11:19:31;9.55;;;6.43;;
52942;SDS011;38809;53.300;6.614;2022-10-31T11:22:05;12.63;;;6.40;;
52942;SDS011;38809;53.300;6.614;2022-10-31T11:24:41;11.52;;;6.65;;
52942;SDS011;38809;53.300;6.614;2022-10-31T11:27:11;9.30;;;6.38;;
52942;SDS011;38809;53.300;6.614;2022-10-31T11:29:45;26.65;;;7.50;;
52942;SDS011;38809;53.300;6.614;2022-10-31T11:32:21;13.88;;;8.18;;
52942;SDS011;38809;53.300;6.614;2022-10-31T11:34:56;11.13;;;6.93;;
52942;SDS011;38809;53.300;6.614;2022-10-31T11:37:25;11.15;;;7.25;;
52942;SDS011;38809;53.300;6.614;2022-10-31T11:39:53;10.80;;;6.60;;
52942;SDS011;38809;53.300;6.614;2022-10-31T11:42:26;11.25;;;6.68;;
52942;SDS011;38809;53.300;6.614;2022-10-31T11:44:55;10.18;;;5.57;;
52942;SDS011;38809;53.300;6.614;2022-10-31T11:49:51;9.52;;;5.90;;
52942;SDS011;38809;53.300;6.614;2022-10-31T11:52:21;9.30;;;5.60;;
52942;SDS011;38809;53.300;6.614;2022-10-31T11:57:46;11.20;;;6.78;;
52942;SDS011;38809;53.300;6.614;2022-10-31T12:00:21;10.23;;;6.70;;
52942;SDS011;38809;53.300;6.614;2022-10-31T12:02:49;12.40;;;7.25;;
52942;SDS011;38809;53.300;6.614;2022-10-31T12:05:19;10.75;;;5.93;;
52942;SDS011;38809;53.300;6.614;2022-10-31T12:07:52;10.02;;;5.57;;
52942;SDS011;38809;53.300;6.614;2022-10-31T12:10:19;10.25;;;5.82;;
52942;SDS011;38809;53.300;6.614;2022-10-31T12:15:22;11.50;;;5.50;;
52942;SDS011;38809;53.300;6.614;2022-10-31T12:21:19;9.60;;;5.07;;
52942;SDS011;38809;53.300;6.614;2022-10-31T12:26:45;11.38;;;5.47;;
52942;SDS011;38809;53.300;6.614;2022-10-31T12:29:47;9.43;;;5.65;;
52942;SDS011;38809;53.300;6.614;2022-10-31T12:32:34;14.75;;;6.38;;
52942;SDS011;38809;53.300;6.614;2022-10-31T12:35:14;16.20;;;7.82;;
52942;SDS011;38809;53.300;6.614;2022-10-31T12:38:00;22.00;;;9.43;;
52942;SDS011;38809;53.300;6.614;2022-10-31T12:46:00;10.10;;;6.40;;
52942;SDS011;38809;53.300;6.614;2022-10-31T12:56:42;10.38;;;5.90;;
52942;SDS011;38809;53.300;6.614;2022-10-31T13:02:10;10.55;;;4.97;;
52942;SDS011;38809;53.300;6.614;2022-10-31T13:04:50;11.30;;;5.80;;
52942;SDS011;38809;53.300;6.614;2022-10-31T13:07:24;9.15;;;5.10;;
52942;SDS011;38809;53.300;6.614;2022-10-31T13:10:02;10.90;;;5.25;;
52942;SDS011;38809;53.300;6.614;2022-10-31T13:12:38;11.80;;;5.38;;
52942;SDS011;38809;53.300;6.614;2022-10-31T13:15:12;10.70;;;4.32;;
52942;SDS011;38809;53.300;6.614;2022-10-31T13:17:47;7.50;;;5.03;;
52942;SDS011;38809;53.300;6.614;2022-10-31T13:20:23;14.93;;;4.57;;
52942;SDS011;38809;53.300;6.614;2022-10-31T13:25:47;10.23;;;4.82;;
52942;SDS011;38809;53.300;6.614;2022-10-31T13:30:47;9.15;;;5.38;;
52942;SDS011;38809;53.300;6.614;2022-10-31T13:33:22;12.40;;;6.03;;
52942;SDS011;38809;53.300;6.614;2022-10-31T13:41:43;15.70;;;6.55;;
52942;SDS011;38809;53.300;6.614;2022-10-31T13:44:16;11.65;;;6.38;;
52942;SDS011;38809;53.300;6.614;2022-10-31T13:46:46;8.93;;;5.32;;
52942;SDS011;38809;53.300;6.614;2022-10-31T13:49:46;11.65;;;6.20;;
52942;SDS011;38809;53.300;6.614;2022-10-31T13:54:43;9.48;;;4.72;;
52942;SDS011;38809;53.300;6.614;2022-10-31T13:57:18;10.82;;;5.38;;
52942;SDS011;38809;53.300;6.614;2022-10-31T13:59:51;10.43;;;5.07;;
52942;SDS011;38809;53.300;6.614;2022-10-31T14:02:31;11.25;;;5.20;;
52942;SDS011;38809;53.300;6.614;2022-10-31T14:05:03;10.90;;;5.15;;
52942;SDS011;38809;53.300;6.614;2022-10-31T14:07:46;10.23;;;4.90;;
52942;SDS011;38809;53.300;6.614;2022-10-31T14:10:32;8.25;;;4.78;;
52942;SDS011;38809;53.300;6.614;2022-10-31T14:13:37;9.65;;;4.88;;
52942;SDS011;38809;53.300;6.614;2022-10-31T14:15:58;8.57;;;4.60;;
52942;SDS011;38809;53.300;6.614;2022-10-31T14:18:31;11.32;;;5.00;;
52942;SDS011;38809;53.300;6.614;2022-10-31T14:20:59;10.15;;;4.80;;
52942;SDS011;38809;53.300;6.614;2022-10-31T14:23:35;9.38;;;4.45;;
52942;SDS011;38809;53.300;6.614;2022-10-31T14:26:51;12.73;;;4.85;;
52942;SDS011;38809;53.300;6.614;2022-10-31T14:28:51;8.45;;;4.57;;
52942;SDS011;38809;53.300;6.614;2022-10-31T14:37:46;10.05;;;5.30;;
52942;SDS011;38809;53.300;6.614;2022-10-31T14:45:14;13.82;;;5.97;;
52942;SDS011;38809;53.300;6.614;2022-10-31T14:50:47;11.85;;;6.13;;
52942;SDS011;38809;53.300;6.614;2022-10-31T14:54:02;11.43;;;6.20;;
52942;SDS011;38809;53.300;6.614;2022-10-31T14:56:10;12.10;;;6.43;;
52942;SDS011;38809;53.300;6.614;2022-10-31T14:58:38;11.35;;;5.55;;
52942;SDS011;38809;53.300;6.614;2022-10-31T15:01:23;13.10;;;5.75;;
52942;SDS011;38809;53.300;6.614;2022-10-31T15:03:53;13.95;;;5.75;;
52942;SDS011;38809;53.300;6.614;2022-10-31T15:06:23;10.38;;;5.15;;
52942;SDS011;38809;53.300;6.614;2022-10-31T15:08:51;13.18;;;6.57;;
52942;SDS011;38809;53.300;6.614;2022-10-31T15:11:22;14.13;;;6.22;;
52942;SDS011;38809;53.300;6.614;2022-10-31T15:13:53;11.43;;;5.80;;
52942;SDS011;38809;53.300;6.614;2022-10-31T15:16:44;12.07;;;5.90;;
52942;SDS011;38809;53.300;6.614;2022-10-31T15:19:12;11.63;;;5.65;;
52942;SDS011;38809;53.300;6.614;2022-10-31T15:21:44;11.27;;;6.18;;
52942;SDS011;38809;53.300;6.614;2022-10-31T15:24:11;11.13;;;6.70;;
52942;SDS011;38809;53.300;6.614;2022-10-31T15:26:44;11.50;;;5.53;;
52942;SDS011;38809;53.300;6.614;2022-10-31T15:29:13;10.52;;;6.47;;
52942;SDS011;38809;53.300;6.614;2022-10-31T15:31:56;12.93;;;6.90;;
52942;SDS011;38809;53.300;6.614;2022-10-31T15:34:27;11.20;;;6.68;;
52942;SDS011;38809;53.300;6.614;2022-10-31T15:37:11;13.55;;;7.85;;
52942;SDS011;38809;53.300;6.614;2022-10-31T15:39:40;15.00;;;8.05;;
52942;SDS011;38809;53.300;6.614;2022-10-31T15:44:46;13.30;;;7.60;;
52942;SDS011;38809;53.300;6.614;2022-10-31T15:47:17;14.18;;;7.40;;
52942;SDS011;38809;53.300;6.614;2022-10-31T15:49:58;10.55;;;7.03;;
52942;SDS011;38809;53.300;6.614;2022-10-31T15:52:28;14.10;;;6.72;;
52942;SDS011;38809;53.300;6.614;2022-10-31T15:55:16;11.65;;;6.43;;
52942;SDS011;38809;53.300;6.614;2022-10-31T15:57:46;11.80;;;6.90;;
52942;SDS011;38809;53.300;6.614;2022-10-31T16:02:47;14.55;;;8.07;;
52942;SDS011;38809;53.300;6.614;2022-10-31T16:05:18;15.57;;;7.97;;
52942;SDS011;38809;53.300;6.614;2022-10-31T16:07:48;14.07;;;7.65;;
52942;SDS011;38809;53.300;6.614;2022-10-31T16:10:22;16.70;;;8.80;;
52942;SDS011;38809;53.300;6.614;2022-10-31T16:12:50;13.23;;;7.60;;
52942;SDS011;38809;53.300;6.614;2022-10-31T16:15:17;11.88;;;7.00;;
52942;SDS011;38809;53.300;6.614;2022-10-31T16:17:46;13.65;;;8.48;;
52942;SDS011;38809;53.300;6.614;2022-10-31T16:20:19;15.30;;;8.57;;
52942;SDS011;38809;53.300;6.614;2022-10-31T16:22:51;15.23;;;8.32;;
52942;SDS011;38809;53.300;6.614;2022-10-31T16:27:57;12.97;;;7.40;;
52942;SDS011;38809;53.300;6.614;2022-10-31T16:30:44;15.48;;;8.00;;
52942;SDS011;38809;53.300;6.614;2022-10-31T16:35:58;12.80;;;7.07;;
52942;SDS011;38809;53.300;6.614;2022-10-31T16:38:24;14.13;;;7.43;;
52942;SDS011;38809;53.300;6.614;2022-10-31T16:40:50;15.50;;;7.70;;
52942;SDS011;38809;53.300;6.614;2022-10-31T16:45:44;15.27;;;8.02;;
52942;SDS011;38809;53.300;6.614;2022-10-31T16:48:12;10.32;;;6.85;;
52942;SDS011;38809;53.300;6.614;2022-10-31T16:50:40;10.60;;;6.53;;
52942;SDS011;38809;53.300;6.614;2022-10-31T16:53:07;9.02;;;6.00;;
52942;SDS011;38809;53.300;6.614;2022-10-31T16:55:33;10.57;;;6.07;;
52942;SDS011;38809;53.300;6.614;2022-10-31T16:58:06;9.38;;;6.18;;
52942;SDS011;38809;53.300;6.614;2022-10-31T17:00:39;11.10;;;6.65;;
52942;SDS011;38809;53.300;6.614;2022-10-31T17:03:04;10.07;;;5.88;;
52942;SDS011;38809;53.300;6.614;2022-10-31T17:05:30;11.02;;;6.68;;
52942;SDS011;38809;53.300;6.614;2022-10-31T17:07:57;11.63;;;6.47;;
52942;SDS011;38809;53.300;6.614;2022-10-31T17:10:22;12.35;;;7.45;;
52942;SDS011;38809;53.300;6.614;2022-10-31T17:12:49;10.35;;;7.18;;
52942;SDS011;38809;53.300;6.614;2022-10-31T17:15:16;10.57;;;7.28;;
52942;SDS011;38809;53.300;6.614;2022-10-31T17:17:50;12.70;;;8.20;;
52942;SDS011;38809;53.300;6.614;2022-10-31T17:20:22;12.77;;;7.75;;
52942;SDS011;38809;53.300;6.614;2022-10-31T17:22:52;12.82;;;7.38;;
52942;SDS011;38809;53.300;6.614;2022-10-31T17:25:19;13.27;;;8.60;;
52942;SDS011;38809;53.300;6.614;2022-10-31T17:27:48;16.20;;;9.18;;
52942;SDS011;38809;53.300;6.614;2022-10-31T17:30:20;17.65;;;10.52;;
52942;SDS011;38809;53.300;6.614;2022-10-31T17:32:46;19.25;;;10.57;;
52942;SDS011;38809;53.300;6.614;2022-10-31T17:35:13;18.15;;;9.75;;
52942;SDS011;38809;53.300;6.614;2022-10-31T17:37:40;18.33;;;10.55;;
52942;SDS011;38809;53.300;6.614;2022-10-31T17:40:07;17.38;;;10.38;;